sensor_id;sensor_type;location;lat;lon;timestamp;pressure;altitude;pressure_sealevel;temperature;humidity
76866;BME280;66647;52.124;5.416;2023-12-07T00:01:07;102138.34;;;-1.16;100.00
76866;BME280;66647;52.124;5.416;2023-12-07T00:03:36;102141.66;;;-1.20;100.00
76866;BME280;66647;52.124;5.416;2023-12-07T00:06:03;102138.78;;;-1.25;100.00
76866;BME280;66647;52.124;5.416;2023-12-07T00:08:29;102135.06;;;-1.24;100.00
76866;BME280;66647;52.124;5.416;2023-12-07T00:10:56;102139.84;;;-1.26;100.00
76866;BME280;66647;52.124;5.416;2023-12-07T00:13:23;102129.28;;;-1.28;100.00
76866;BME280;66647;52.124;5.416;2023-12-07T00:15:49;102133.84;;;-1.28;100.00
76866;BME280;66647;52.124;5.416;2023-12-07T00:18:16;102137.56;;;-1.29;100.00
76866;BME280;66647;52.124;5.416;2023-12-07T00:20:42;102137.56;;;-1.29;100.00
76866;BME280;66647;52.124;5.416;2023-12-07T00:23:09;102144.22;;;-1.32;100.00
76866;BME280;66647;52.124;5.416;2023-12-07T00:25:35;102140.94;;;-1.34;100.00
76866;BME280;66647;52.124;5.416;2023-12-07T00:28:03;102142.81;;;-1.34;100.00
76866;BME280;66647;52.124;5.416;2023-12-07T00:30:30;102129.56;;;-1.36;100.00
76866;BME280;66647;52.124;5.416;2023-12-07T00:32:57;102128.94;;;-1.38;100.00
76866;BME280;66647;52.124;5.416;2023-12-07T00:35:23;102130.00;;;-1.39;100.00
76866;BME280;66647;52.124;5.416;2023-12-07T00:37:50;102122.34;;;-1.42;100.00
76866;BME280;66647;52.124;5.416;2023-12-07T00:40:19;102120.69;;;-1.43;100.00
76866;BME280;66647;52.124;5.416;2023-12-07T00:42:46;102125.25;;;-1.44;100.00
76866;BME280;66647;52.124;5.416;2023-12-07T00:45:12;102120.28;;;-1.47;100.00
76866;BME280;66647;52.124;5.416;2023-12-07T00:47:39;102125.06;;;-1.49;100.00
76866;BME280;66647;52.124;5.416;2023-12-07T00:50:07;102122.78;;;-1.52;100.00
76866;BME280;66647;52.124;5.416;2023-12-07T00:52:33;102127.56;;;-1.54;100.00
76866;BME280;66647;52.124;5.416;2023-12-07T00:55:03;102117.41;;;-1.52;100.00
76866;BME280;66647;52.124;5.416;2023-12-07T00:57:37;102131.06;;;-1.53;100.00
76866;BME280;66647;52.124;5.416;2023-12-07T01:00:04;102132.31;;;-1.56;100.00
76866;BME280;66647;52.124;5.416;2023-12-07T01:02:32;102122.00;;;-1.59;100.00
76866;BME280;66647;52.124;5.416;2023-12-07T01:04:58;102124.91;;;-1.60;100.00
76866;BME280;66647;52.124;5.416;2023-12-07T01:07:25;102119.53;;;-1.60;100.00
76866;BME280;66647;52.124;5.416;2023-12-07T01:09:52;102117.28;;;-1.63;100.00
76866;BME280;66647;52.124;5.416;2023-12-07T01:12:18;102121.22;;;-1.66;100.00
76866;BME280;66647;52.124;5.416;2023-12-07T01:14:45;102124.94;;;-1.67;100.00
76866;BME280;66647;52.124;5.416;2023-12-07T01:17:11;102128.69;;;-1.68;100.00
76866;BME280;66647;52.124;5.416;2023-12-07T01:19:38;102130.13;;;-1.72;100.00
76866;BME280;66647;52.124;5.416;2023-12-07T01:22:05;102127.22;;;-1.71;100.00
76866;BME280;66647;52.124;5.416;2023-12-07T01:24:31;102126.41;;;-1.71;100.00
76866;BME280;66647;52.124;5.416;2023-12-07T01:26:58;102138.41;;;-1.74;100.00
76866;BME280;66647;52.124;5.416;2023-12-07T01:29:25;102134.91;;;-1.74;100.00
76866;BME280;66647;52.124;5.416;2023-12-07T01:31:51;102139.84;;;-1.71;100.00
76866;BME280;66647;52.124;5.416;2023-12-07T01:34:18;102139.44;;;-1.75;100.00
76866;BME280;66647;52.124;5.416;2023-12-07T01:36:45;102145.88;;;-1.76;100.00
76866;BME280;66647;52.124;5.416;2023-12-07T01:39:12;102136.56;;;-1.73;100.00
76866;BME280;66647;52.124;5.416;2023-12-07T01:41:39;102139.84;;;-1.71;100.00
76866;BME280;66647;52.124;5.416;2023-12-07T01:44:06;102140.69;;;-1.71;100.00
76866;BME280;66647;52.124;5.416;2023-12-07T01:46:33;102145.22;;;-1.71;100.00
76866;BME280;66647;52.124;5.416;2023-12-07T01:49:00;102140.28;;;-1.74;100.00
76866;BME280;66647;52.124;5.416;2023-12-07T01:51:27;102144.00;;;-1.75;100.00
76866;BME280;66647;52.124;5.416;2023-12-07T01:53:54;102148.75;;;-1.77;100.00
76866;BME280;66647;52.124;5.416;2023-12-07T01:56:23;102146.06;;;-1.77;100.00
76866;BME280;66647;52.124;5.416;2023-12-07T01:58:54;102149.78;;;-1.78;100.00
76866;BME280;66647;52.124;5.416;2023-12-07T02:01:21;102145.06;;;-1.83;100.00
76866;BME280;66647;52.124;5.416;2023-12-07T02:03:50;102143.41;;;-1.84;100.00
76866;BME280;66647;52.124;5.416;2023-12-07T02:06:19;102146.91;;;-1.83;100.00
76866;BME280;66647;52.124;5.416;2023-12-07T02:08:47;102147.75;;;-1.83;100.00
76866;BME280;66647;52.124;5.416;2023-12-07T02:11:13;102141.53;;;-1.83;100.00
76866;BME280;66647;52.124;5.416;2023-12-07T02:13:40;102127.91;;;-1.88;100.00
76866;BME280;66647;52.124;5.416;2023-12-07T02:16:13;102137.00;;;-1.89;100.00
76866;BME280;66647;52.124;5.416;2023-12-07T02:21:38;102137.88;;;-1.95;100.00
76866;BME280;66647;52.124;5.416;2023-12-07T02:24:07;102143.47;;;-1.97;100.00
76866;BME280;66647;52.124;5.416;2023-12-07T02:26:35;102139.94;;;-1.97;100.00
76866;BME280;66647;52.124;5.416;2023-12-07T02:29:03;102149.03;;;-1.98;100.00
76866;BME280;66647;52.124;5.416;2023-12-07T02:31:31;102143.88;;;-2.00;100.00
76866;BME280;66647;52.124;5.416;2023-12-07T02:34:01;102142.00;;;-1.99;100.00
76866;BME280;66647;52.124;5.416;2023-12-07T02:36:29;102143.25;;;-2.02;100.00
76866;BME280;66647;52.124;5.416;2023-12-07T02:38:57;102142.63;;;-2.04;100.00
76866;BME280;66647;52.124;5.416;2023-12-07T02:41:25;102154.63;;;-2.07;100.00
76866;BME280;66647;52.124;5.416;2023-12-07T02:43:54;102151.94;;;-2.07;100.00
76866;BME280;66647;52.124;5.416;2023-12-07T02:46:20;102147.19;;;-2.05;100.00
76866;BME280;66647;52.124;5.416;2023-12-07T02:48:47;102137.88;;;-2.02;100.00
76866;BME280;66647;52.124;5.416;2023-12-07T02:51:14;102135.00;;;-2.00;100.00
76866;BME280;66647;52.124;5.416;2023-12-07T02:53:41;102132.72;;;-2.04;100.00
76866;BME280;66647;52.124;5.416;2023-12-07T02:56:07;102133.75;;;-2.05;100.00
76866;BME280;66647;52.124;5.416;2023-12-07T02:58:34;102132.50;;;-2.02;100.00
76866;BME280;66647;52.124;5.416;2023-12-07T03:01:01;102128.56;;;-1.99;100.00
76866;BME280;66647;52.124;5.416;2023-12-07T03:03:27;102137.06;;;-2.03;100.00
76866;BME280;66647;52.124;5.416;2023-12-07T03:05:54;102133.34;;;-2.01;100.00
76866;BME280;66647;52.124;5.416;2023-12-07T03:08:21;102140.16;;;-1.99;100.00
76866;BME280;66647;52.124;5.416;2023-12-07T03:10:48;102137.69;;;-2.00;100.00
76866;BME280;66647;52.124;5.416;2023-12-07T03:13:15;102135.81;;;-2.00;100.00
76866;BME280;66647;52.124;5.416;2023-12-07T03:15:41;102138.28;;;-1.98;100.00
76866;BME280;66647;52.124;5.416;2023-12-07T03:18:08;102133.94;;;-1.99;100.00
76866;BME280;66647;52.124;5.416;2023-12-07T03:20:34;102138.50;;;-2.00;100.00
76866;BME280;66647;52.124;5.416;2023-12-07T03:23:01;102144.50;;;-1.98;100.00
76866;BME280;66647;52.124;5.416;2023-12-07T03:25:28;102148.22;;;-1.99;100.00
76866;BME280;66647;52.124;5.416;2023-12-07T03:27:54;102157.31;;;-2.00;100.00
76866;BME280;66647;52.124;5.416;2023-12-07T03:30:23;102155.88;;;-2.03;100.00
76866;BME280;66647;52.124;5.416;2023-12-07T03:32:49;102145.13;;;-2.03;100.00
76866;BME280;66647;52.124;5.416;2023-12-07T03:35:18;102154.22;;;-2.04;100.00
76866;BME280;66647;52.124;5.416;2023-12-07T03:37:44;102151.75;;;-2.05;100.00
76866;BME280;66647;52.124;5.416;2023-12-07T03:40:11;102151.94;;;-2.07;100.00
76866;BME280;66647;52.124;5.416;2023-12-07T03:42:38;102157.53;;;-2.08;100.00
76866;BME280;66647;52.124;5.416;2023-12-07T03:45:21;102154.84;;;-2.08;100.00
76866;BME280;66647;52.124;5.416;2023-12-07T03:47:48;102150.28;;;-2.08;100.00
76866;BME280;66647;52.124;5.416;2023-12-07T03:50:15;102158.34;;;-2.08;100.00
76866;BME280;66647;52.124;5.416;2023-12-07T03:52:41;102154.44;;;-2.12;100.00
76866;BME280;66647;52.124;5.416;2023-12-07T03:55:08;102159.81;;;-2.12;100.00
76866;BME280;66647;52.124;5.416;2023-12-07T03:57:37;102156.50;;;-2.14;100.00
76866;BME280;66647;52.124;5.416;2023-12-07T04:00:04;102153.41;;;-2.17;100.00
76866;BME280;66647;52.124;5.416;2023-12-07T04:02:35;102150.50;;;-2.16;100.00
76866;BME280;66647;52.124;5.416;2023-12-07T04:05:01;102154.03;;;-2.15;100.00
76866;BME280;66647;52.124;5.416;2023-12-07T04:07:28;102158.78;;;-2.17;100.00
76866;BME280;66647;52.124;5.416;2023-12-07T04:09:56;102158.78;;;-2.17;100.00
76866;BME280;66647;52.124;5.416;2023-12-07T04:12:26;102154.03;;;-2.15;100.00
76866;BME280;66647;52.124;5.416;2023-12-07T04:14:52;102160.22;;;-2.15;100.00
76866;BME280;66647;52.124;5.416;2023-12-07T04:17:20;102160.22;;;-2.15;100.00
76866;BME280;66647;52.124;5.416;2023-12-07T04:19:47;102146.78;;;-2.15;100.00
76866;BME280;66647;52.124;5.416;2023-12-07T04:22:14;102151.53;;;-2.17;100.00
76866;BME280;66647;52.124;5.416;2023-12-07T04:24:40;102152.56;;;-2.18;100.00
76866;BME280;66647;52.124;5.416;2023-12-07T04:27:07;102148.03;;;-2.17;100.00
76866;BME280;66647;52.124;5.416;2023-12-07T04:29:36;102162.28;;;-2.17;100.00
76866;BME280;66647;52.124;5.416;2023-12-07T04:32:03;102157.13;;;-2.18;100.00
76866;BME280;66647;52.124;5.416;2023-12-07T04:34:29;102157.94;;;-2.18;100.00
76866;BME280;66647;52.124;5.416;2023-12-07T04:36:56;102151.75;;;-2.18;100.00
76866;BME280;66647;52.124;5.416;2023-12-07T04:39:22;102147.19;;;-2.18;100.00
76866;BME280;66647;52.124;5.416;2023-12-07T04:41:49;102150.72;;;-2.17;100.00
76866;BME280;66647;52.124;5.416;2023-12-07T04:44:16;102157.94;;;-2.18;100.00
76866;BME280;66647;52.124;5.416;2023-12-07T04:46:42;102155.88;;;-2.22;100.00
76866;BME280;66647;52.124;5.416;2023-12-07T04:49:09;102156.91;;;-2.23;100.00
76866;BME280;66647;52.124;5.416;2023-12-07T04:51:36;102152.78;;;-2.26;100.00
76866;BME280;66647;52.124;5.416;2023-12-07T04:54:03;102155.91;;;-2.29;100.00
76866;BME280;66647;52.124;5.416;2023-12-07T04:56:41;102156.50;;;-2.27;100.00
76866;BME280;66647;52.124;5.416;2023-12-07T04:59:10;102158.16;;;-2.26;100.00
76866;BME280;66647;52.124;5.416;2023-12-07T05:01:37;102147.41;;;-2.26;100.00
76866;BME280;66647;52.124;5.416;2023-12-07T05:04:04;102145.34;;;-2.24;100.00
76866;BME280;66647;52.124;5.416;2023-12-07T05:06:32;102139.97;;;-2.24;100.00
76866;BME280;66647;52.124;5.416;2023-12-07T05:09:13;102140.81;;;-2.23;100.00
76866;BME280;66647;52.124;5.416;2023-12-07T05:11:39;102147.63;;;-2.21;100.00
76866;BME280;66647;52.124;5.416;2023-12-07T05:14:06;102142.88;;;-2.19;100.00
76866;BME280;66647;52.124;5.416;2023-12-07T05:16:33;102142.88;;;-2.19;100.00
76866;BME280;66647;52.124;5.416;2023-12-07T05:19:00;102139.16;;;-2.18;100.00
76866;BME280;66647;52.124;5.416;2023-12-07T05:21:28;102138.09;;;-2.17;100.00
76866;BME280;66647;52.124;5.416;2023-12-07T05:23:54;102139.75;;;-2.16;100.00
76866;BME280;66647;52.124;5.416;2023-12-07T05:26:21;102143.06;;;-2.14;100.00
76866;BME280;66647;52.124;5.416;2023-12-07T05:28:51;102138.31;;;-2.12;100.00
76866;BME280;66647;52.124;5.416;2023-12-07T05:35:37;102129.22;;;-2.11;100.00
76866;BME280;66647;52.124;5.416;2023-12-07T05:38:03;102134.59;;;-2.11;100.00
76866;BME280;66647;52.124;5.416;2023-12-07T05:40:31;102130.44;;;-2.07;100.00
76866;BME280;66647;52.124;5.416;2023-12-07T05:42:57;102136.44;;;-2.05;100.00
76866;BME280;66647;52.124;5.416;2023-12-07T05:45:24;102128.38;;;-2.05;100.00
76866;BME280;66647;52.124;5.416;2023-12-07T05:47:52;102131.69;;;-2.03;100.00
76866;BME280;66647;52.124;5.416;2023-12-07T05:50:19;102126.94;;;-2.00;100.00
76866;BME280;66647;52.124;5.416;2023-12-07T05:52:46;102135.41;;;-1.97;100.00
76866;BME280;66647;52.124;5.416;2023-12-07T05:55:13;102128.75;;;-1.94;100.00
76866;BME280;66647;52.124;5.416;2023-12-07T05:57:40;102126.25;;;-1.89;100.00
76866;BME280;66647;52.124;5.416;2023-12-07T06:00:08;102130.16;;;-1.85;100.00
76866;BME280;66647;52.124;5.416;2023-12-07T06:02:39;102127.69;;;-1.80;100.00
76866;BME280;66647;52.124;5.416;2023-12-07T06:06:21;102131.59;;;-1.76;100.00
76866;BME280;66647;52.124;5.416;2023-12-07T06:08:47;102133.88;;;-1.73;100.00
76866;BME280;66647;52.124;5.416;2023-12-07T06:12:10;102134.47;;;-1.71;100.00
76866;BME280;66647;52.124;5.416;2023-12-07T06:14:36;102136.53;;;-1.66;100.00
76866;BME280;66647;52.124;5.416;2023-12-07T06:17:06;102146.03;;;-1.64;100.00
76866;BME280;66647;52.124;5.416;2023-12-07T06:19:35;102147.44;;;-1.61;100.00
76866;BME280;66647;52.124;5.416;2023-12-07T06:22:12;102141.84;;;-1.60;100.00
76866;BME280;66647;52.124;5.416;2023-12-07T06:24:40;102140.59;;;-1.57;100.00
76866;BME280;66647;52.124;5.416;2023-12-07T06:27:06;102153.84;;;-1.56;100.00
76866;BME280;66647;52.124;5.416;2023-12-07T06:29:40;102155.50;;;-1.55;100.00
76866;BME280;66647;52.124;5.416;2023-12-07T06:32:07;102149.06;;;-1.54;100.00
76866;BME280;66647;52.124;5.416;2023-12-07T06:34:33;102156.09;;;-1.53;100.00
76866;BME280;66647;52.124;5.416;2023-12-07T06:37:01;102155.69;;;-1.50;100.00
76866;BME280;66647;52.124;5.416;2023-12-07T06:39:27;102155.06;;;-1.52;100.00
76866;BME280;66647;52.124;5.416;2023-12-07T06:41:54;102155.47;;;-1.48;100.00
76866;BME280;66647;52.124;5.416;2023-12-07T06:44:21;102149.88;;;-1.47;100.00
76866;BME280;66647;52.124;5.416;2023-12-07T06:46:50;102155.47;;;-1.48;100.00
76866;BME280;66647;52.124;5.416;2023-12-07T06:49:17;102156.28;;;-1.48;100.00
76866;BME280;66647;52.124;5.416;2023-12-07T06:51:45;102149.25;;;-1.49;100.00
76866;BME280;66647;52.124;5.416;2023-12-07T06:54:15;102160.84;;;-1.48;100.00
76866;BME280;66647;52.124;5.416;2023-12-07T06:56:41;102159.00;;;-1.48;100.00
76866;BME280;66647;52.124;5.416;2023-12-07T06:59:11;102154.66;;;-1.49;100.00
76866;BME280;66647;52.124;5.416;2023-12-07T07:01:37;102157.34;;;-1.49;100.00
76866;BME280;66647;52.124;5.416;2023-12-07T07:04:06;102156.72;;;-1.51;100.00
76866;BME280;66647;52.124;5.416;2023-12-07T07:06:35;102156.28;;;-1.48;100.00
76866;BME280;66647;52.124;5.416;2023-12-07T07:09:05;102155.69;;;-1.50;100.00
76866;BME280;66647;52.124;5.416;2023-12-07T07:11:32;102149.69;;;-1.52;100.00
76866;BME280;66647;52.124;5.416;2023-12-07T07:13:58;102133.75;;;-1.53;100.00
76866;BME280;66647;52.124;5.416;2023-12-07T07:16:25;102148.03;;;-1.53;100.00
76866;BME280;66647;52.124;5.416;2023-12-07T07:18:52;102154.25;;;-1.52;100.00
76866;BME280;66647;52.124;5.416;2023-12-07T07:21:19;102157.75;;;-1.52;100.00
76866;BME280;66647;52.124;5.416;2023-12-07T07:23:48;102152.16;;;-1.50;100.00
76866;BME280;66647;52.124;5.416;2023-12-07T07:26:14;102154.44;;;-1.47;100.00
76866;BME280;66647;52.124;5.416;2023-12-07T07:28:43;102159.59;;;-1.46;100.00
76866;BME280;66647;52.124;5.416;2023-12-07T07:31:10;102162.50;;;-1.47;100.00
76866;BME280;66647;52.124;5.416;2023-12-07T07:33:37;102159.59;;;-1.46;100.00
76866;BME280;66647;52.124;5.416;2023-12-07T07:36:07;102155.44;;;-1.42;100.00
76866;BME280;66647;52.124;5.416;2023-12-07T07:38:33;102168.06;;;-1.42;100.00
76866;BME280;66647;52.124;5.416;2023-12-07T07:41:00;102163.72;;;-1.43;100.00
76866;BME280;66647;52.124;5.416;2023-12-07T07:43:27;102165.81;;;-1.45;100.00
76866;BME280;66647;52.124;5.416;2023-12-07T07:45:54;102166.63;;;-1.45;100.00
76866;BME280;66647;52.124;5.416;2023-12-07T07:48:20;102157.94;;;-1.47;100.00
76866;BME280;66647;52.124;5.416;2023-12-07T07:50:47;102154.66;;;-1.49;100.00
76866;BME280;66647;52.124;5.416;2023-12-07T07:53:14;102157.53;;;-1.50;100.00
76866;BME280;66647;52.124;5.416;2023-12-07T07:55:40;102165.22;;;-1.54;100.00
76866;BME280;66647;52.124;5.416;2023-12-07T07:58:11;102166.03;;;-1.53;100.00
76866;BME280;66647;52.124;5.416;2023-12-07T08:00:38;102179.06;;;-1.50;100.00
76866;BME280;66647;52.124;5.416;2023-12-07T08:03:07;102174.75;;;-1.58;100.00
76866;BME280;66647;52.124;5.416;2023-12-07T08:05:37;102171.22;;;-1.58;100.00
76866;BME280;66647;52.124;5.416;2023-12-07T08:08:04;102168.13;;;-1.55;100.00
76866;BME280;66647;52.124;5.416;2023-12-07T08:10:32;102166.25;;;-1.55;100.00
76866;BME280;66647;52.124;5.416;2023-12-07T08:13:19;102167.06;;;-1.54;100.00
76866;BME280;66647;52.124;5.416;2023-12-07T08:15:49;102161.69;;;-1.54;100.00
76866;BME280;66647;52.124;5.416;2023-12-07T08:18:48;102152.16;;;-1.50;100.00
76866;BME280;66647;52.124;5.416;2023-12-07T08:21:42;102165.00;;;-1.52;100.00
76866;BME280;66647;52.124;5.416;2023-12-07T08:24:08;102164.78;;;-1.51;100.00
76866;BME280;66647;52.124;5.416;2023-12-07T08:26:35;102169.13;;;-1.50;100.00
76866;BME280;66647;52.124;5.416;2023-12-07T08:29:02;102164.38;;;-1.48;100.00
76866;BME280;66647;52.124;5.416;2023-12-07T08:31:30;102168.72;;;-1.47;100.00
76866;BME280;66647;52.124;5.416;2023-12-07T08:33:59;102167.84;;;-1.41;100.00
76866;BME280;66647;52.124;5.416;2023-12-07T08:36:28;102171.59;;;-1.42;100.00
76866;BME280;66647;52.124;5.416;2023-12-07T08:38:55;102159.38;;;-1.44;100.00
76866;BME280;66647;52.124;5.416;2023-12-07T08:41:21;102165.38;;;-1.42;100.00
76866;BME280;66647;52.124;5.416;2023-12-07T08:43:48;102164.78;;;-1.44;100.00
76866;BME280;66647;52.124;5.416;2023-12-07T08:46:16;102167.03;;;-1.41;100.00
76866;BME280;66647;52.124;5.416;2023-12-07T08:48:46;102163.31;;;-1.40;100.00
76866;BME280;66647;52.124;5.416;2023-12-07T08:51:14;102158.75;;;-1.40;100.00
76866;BME280;66647;52.124;5.416;2023-12-07T08:53:41;102164.75;;;-1.38;100.00
76866;BME280;66647;52.124;5.416;2023-12-07T08:56:07;102158.31;;;-1.37;100.00
76866;BME280;66647;52.124;5.416;2023-12-07T08:58:34;102161.03;;;-1.37;100.00
76866;BME280;66647;52.124;5.416;2023-12-07T09:01:01;102160.16;;;-1.30;100.00
76866;BME280;66647;52.124;5.416;2023-12-07T09:03:28;102152.69;;;-1.28;100.00
76866;BME280;66647;52.124;5.416;2023-12-07T09:05:59;102156.59;;;-1.24;100.00
76866;BME280;66647;52.124;5.416;2023-12-07T09:08:26;102165.28;;;-1.22;100.00
76866;BME280;66647;52.124;5.416;2023-12-07T09:10:53;102153.25;;;-1.20;100.00
76866;BME280;66647;52.124;5.416;2023-12-07T09:13:20;102151.19;;;-1.18;100.00
76866;BME280;66647;52.124;5.416;2023-12-07T09:15:46;102137.50;;;-1.16;100.00
76866;BME280;66647;52.124;5.416;2023-12-07T09:18:15;102143.06;;;-1.11;100.00
76866;BME280;66647;52.124;5.416;2023-12-07T09:20:51;102133.97;;;-1.10;100.00
76866;BME280;66647;52.124;5.416;2023-12-07T09:23:17;102137.06;;;-1.13;100.00
76866;BME280;66647;52.124;5.416;2023-12-07T09:25:44;102150.09;;;-1.10;100.00
76866;BME280;66647;52.124;5.416;2023-12-07T09:28:11;102142.25;;;-1.12;100.00
76866;BME280;66647;52.124;5.416;2023-12-07T09:30:38;102143.91;;;-1.11;100.00
76866;BME280;66647;52.124;5.416;2023-12-07T09:33:04;102144.72;;;-1.10;100.00
76866;BME280;66647;52.124;5.416;2023-12-07T09:35:32;102150.50;;;-1.07;100.00
76866;BME280;66647;52.124;5.416;2023-12-07T09:38:00;102149.06;;;-1.09;100.00
76866;BME280;66647;52.124;5.416;2023-12-07T09:40:29;102156.09;;;-1.08;100.00
76866;BME280;66647;52.124;5.416;2023-12-07T09:42:57;102145.34;;;-1.08;100.00
76866;BME280;66647;52.124;5.416;2023-12-07T09:45:23;102152.38;;;-1.07;100.00
76866;BME280;66647;52.124;5.416;2023-12-07T09:47:54;102165.19;;;-1.03;100.00
76866;BME280;66647;52.124;5.416;2023-12-07T09:50:22;102151.13;;;-1.05;100.00
76866;BME280;66647;52.124;5.416;2023-12-07T09:52:52;102149.47;;;-1.06;100.00
76866;BME280;66647;52.124;5.416;2023-12-07T09:55:32;102157.09;;;-1.03;100.00
76866;BME280;66647;52.124;5.416;2023-12-07T09:58:00;102150.91;;;-1.03;100.00
76866;BME280;66647;52.124;5.416;2023-12-07T10:00:28;102143.22;;;-0.99;100.00
76866;BME280;66647;52.124;5.416;2023-12-07T10:02:55;102137.84;;;-0.99;100.00
76866;BME280;66647;52.124;5.416;2023-12-07T10:05:22;102138.44;;;-0.97;100.00
76866;BME280;66647;52.124;5.416;2023-12-07T10:07:49;102130.78;;;-1.00;100.00
76866;BME280;66647;52.124;5.416;2023-12-07T10:10:18;102132.44;;;-0.99;100.00
76866;BME280;66647;52.124;5.416;2023-12-07T10:12:51;102124.97;;;-0.97;100.00
76866;BME280;66647;52.124;5.416;2023-12-07T10:15:19;102109.63;;;-0.97;100.00
76866;BME280;66647;52.124;5.416;2023-12-07T10:17:51;102109.41;;;-0.95;100.00
76866;BME280;66647;52.124;5.416;2023-12-07T10:20:20;102101.72;;;-0.92;100.00
76866;BME280;66647;52.124;5.416;2023-12-07T10:23:07;102097.38;;;-0.93;100.00
76866;BME280;66647;52.124;5.416;2023-12-07T10:25:41;102086.41;;;-0.91;100.00
76866;BME280;66647;52.124;5.416;2023-12-07T10:28:21;102084.31;;;-0.89;100.00
76866;BME280;66647;52.124;5.416;2023-12-07T10:30:53;102083.06;;;-0.87;100.00
76866;BME280;66647;52.124;5.416;2023-12-07T10:33:47;102086.78;;;-0.88;100.00
76866;BME280;66647;52.124;5.416;2023-12-07T10:36:14;102078.88;;;-0.83;100.00
76866;BME280;66647;52.124;5.416;2023-12-07T10:38:40;102076.56;;;-0.79;100.00
76866;BME280;66647;52.124;5.416;2023-12-07T10:41:12;102082.56;;;-0.77;100.00
76866;BME280;66647;52.124;5.416;2023-12-07T10:43:43;102076.34;;;-0.78;100.00
76866;BME280;66647;52.124;5.416;2023-12-07T10:46:14;102080.09;;;-0.79;100.00
76866;BME280;66647;52.124;5.416;2023-12-07T10:48:44;102072.00;;;-0.79;100.00
76866;BME280;66647;52.124;5.416;2023-12-07T10:51:38;102064.53;;;-0.77;100.00
76866;BME280;66647;52.124;5.416;2023-12-07T10:54:10;102058.13;;;-0.76;100.00
76866;BME280;66647;52.124;5.416;2023-12-07T10:56:44;102049.81;;;-0.74;100.00
76866;BME280;66647;52.124;5.416;2023-12-07T10:59:12;102053.94;;;-0.72;100.00
76866;BME280;66647;52.124;5.416;2023-12-07T11:01:56;102054.75;;;-0.71;100.00
76866;BME280;66647;52.124;5.416;2023-12-07T11:04:24;102053.72;;;-0.70;100.00
76866;BME280;66647;52.124;5.416;2023-12-07T11:06:56;102057.84;;;-0.68;100.00
76866;BME280;66647;52.124;5.416;2023-12-07T11:09:32;102050.38;;;-0.65;100.00
76866;BME280;66647;52.124;5.416;2023-12-07T11:12:11;102037.72;;;-0.65;100.00
76866;BME280;66647;52.124;5.416;2023-12-07T11:14:42;102041.22;;;-0.64;100.00
76866;BME280;66647;52.124;5.416;2023-12-07T11:17:09;102039.94;;;-0.62;100.00
76866;BME280;66647;52.124;5.416;2023-12-07T11:22:07;102023.13;;;-0.57;100.00
76866;BME280;66647;52.124;5.416;2023-12-07T11:24:35;102016.47;;;-0.55;100.00
76866;BME280;66647;52.124;5.416;2023-12-07T11:27:03;102022.22;;;-0.51;100.00
76866;BME280;66647;52.124;5.416;2023-12-07T11:29:35;102008.75;;;-0.51;100.00
76866;BME280;66647;52.124;5.416;2023-12-07T11:32:02;102000.47;;;-0.50;100.00
76866;BME280;66647;52.124;5.416;2023-12-07T11:34:40;101996.72;;;-0.49;100.00
76866;BME280;66647;52.124;5.416;2023-12-07T11:37:08;101998.16;;;-0.46;100.00
76866;BME280;66647;52.124;5.416;2023-12-07T11:39:39;101991.94;;;-0.47;100.00
76866;BME280;66647;52.124;5.416;2023-12-07T11:42:17;101988.56;;;-0.42;100.00
76866;BME280;66647;52.124;5.416;2023-12-07T11:44:47;101976.97;;;-0.43;100.00
76866;BME280;66647;52.124;5.416;2023-12-07T11:47:17;101975.09;;;-0.42;100.00
76866;BME280;66647;52.124;5.416;2023-12-07T11:49:44;101983.78;;;-0.40;100.00
76866;BME280;66647;52.124;5.416;2023-12-07T11:52:13;101979.00;;;-0.38;100.00
76866;BME280;66647;52.124;5.416;2023-12-07T11:54:45;101980.19;;;-0.34;100.00
76866;BME280;66647;52.124;5.416;2023-12-07T11:57:15;101977.28;;;-0.32;100.00
76866;BME280;66647;52.124;5.416;2023-12-07T11:59:46;101975.97;;;-0.30;100.00
76866;BME280;66647;52.124;5.416;2023-12-07T12:02:16;101975.97;;;-0.30;100.00
76866;BME280;66647;52.124;5.416;2023-12-07T12:04:43;101970.13;;;-0.27;100.00
76866;BME280;66647;52.124;5.416;2023-12-07T12:07:10;101962.66;;;-0.25;100.00
76866;BME280;66647;52.124;5.416;2023-12-07T12:09:37;101955.97;;;-0.22;100.00
76866;BME280;66647;52.124;5.416;2023-12-07T12:12:04;101956.34;;;-0.19;100.00
76866;BME280;66647;52.124;5.416;2023-12-07T12:14:32;101948.66;;;-0.15;100.00
76866;BME280;66647;52.124;5.416;2023-12-07T12:16:59;101946.31;;;-0.12;100.00
76866;BME280;66647;52.124;5.416;2023-12-07T12:19:28;101936.34;;;-0.11;100.00
76866;BME280;66647;52.124;5.416;2023-12-07T12:22:03;101930.50;;;-0.08;100.00
76866;BME280;66647;52.124;5.416;2023-12-07T12:24:36;101937.31;;;-0.06;100.00
76866;BME280;66647;52.124;5.416;2023-12-07T12:27:04;101929.59;;;-0.02;100.00
76866;BME280;66647;52.124;5.416;2023-12-07T12:29:32;101926.91;;;-0.02;100.00
76866;BME280;66647;52.124;5.416;2023-12-07T12:32:02;101925.03;;;-0.02;100.00
76866;BME280;66647;52.124;5.416;2023-12-07T12:34:32;101917.78;;;-0.01;100.00
76866;BME280;66647;52.124;5.416;2023-12-07T12:37:00;101912.13;;;0.00;100.00
76866;BME280;66647;52.124;5.416;2023-12-07T12:39:28;101913.31;;;0.05;100.00
76866;BME280;66647;52.124;5.416;2023-12-07T12:42:01;101897.28;;;0.10;100.00
76866;BME280;66647;52.124;5.416;2023-12-07T12:44:30;101901.38;;;0.12;100.00
76866;BME280;66647;52.124;5.416;2023-12-07T12:47:07;101898.22;;;0.15;100.00
76866;BME280;66647;52.124;5.416;2023-12-07T12:49:39;101881.94;;;0.22;100.00
76866;BME280;66647;52.124;5.416;2023-12-07T12:52:17;101879.84;;;0.24;100.00
76866;BME280;66647;52.124;5.416;2023-12-07T12:54:44;101881.03;;;0.28;100.00
76866;BME280;66647;52.124;5.416;2023-12-07T12:57:10;101873.53;;;0.30;100.00
76866;BME280;66647;52.124;5.416;2023-12-07T12:59:37;101865.53;;;0.35;100.00